Time;durP1;ratioP1;P1;durP2;ratioP2;P2;SDS_P1;SDS_P2;PMS_P1;PMS_P2;Temp;Humidity;BMP_temperature;BMP_pressure;BME280_temperature;BME280_humidity;BME280_pressure;Samples;Min_cycle;Max_cycle;Signal;HPM_P1;HPM_P2
2021/10/16 00:02:26;;;;;;;1999.90;999.90;;;;;;;4.03;55.03;101568.94;5059334;27;97904;-70
2021/10/16 00:04:54;;;;;;;1999.90;999.90;;;;;;;3.98;55.56;101576.59;5061197;27;96893;-71
2021/10/16 00:07:22;;;;;;;1999.90;999.90;;;;;;;4.00;55.76;101569.69;5059132;27;97993;-71
2021/10/16 00:09:49;;;;;;;1999.90;999.90;;;;;;;3.99;55.72;101572.22;5041769;27;99331;-72
2021/10/16 00:12:17;;;;;;;1999.90;999.90;;;;;;;4.00;55.58;101576.69;5059475;27;97887;-69
2021/10/16 00:14:46;;;;;;;1999.90;999.90;;;;;;;4.03;55.74;101575.13;5058801;27;97402;-70
2021/10/16 00:17:14;;;;;;;1999.90;999.90;;;;;;;4.07;55.32;101574.50;5040949;27;97424;-68
2021/10/16 00:19:42;;;;;;;1999.90;999.90;;;;;;;4.09;55.38;101575.50;5058195;27;100345;-69
2021/10/16 00:22:10;;;;;;;1999.90;999.90;;;;;;;4.08;55.66;101576.31;5060512;27;97767;-70
2021/10/16 00:24:38;;;;;;;1999.90;999.90;;;;;;;4.06;55.47;101574.41;5058438;27;97053;-70
2021/10/16 00:27:06;;;;;;;1999.90;999.90;;;;;;;4.07;55.04;101576.22;5058025;27;97832;-69
2021/10/16 00:29:34;;;;;;;1999.90;999.90;;;;;;;4.06;55.40;101580.56;5058344;27;100626;-70
2021/10/16 00:32:04;;;;;;;1999.90;999.90;;;;;;;4.03;54.69;101575.13;5058437;27;100417;-68
2021/10/16 00:34:31;;;;;;;1999.90;999.90;;;;;;;4.01;55.11;101581.13;5058279;27;98685;-68
2021/10/16 00:36:59;;;;;;;1999.90;999.90;;;;;;;3.97;55.21;101580.03;5040961;27;98066;-69
2021/10/16 00:39:27;;;;;;;1999.90;999.90;;;;;;;3.94;55.10;101577.22;5057552;27;99974;-68
2021/10/16 00:41:55;;;;;;;1999.90;999.90;;;;;;;3.89;55.18;101581.31;5057526;27;99102;-68
2021/10/16 00:44:25;;;;;;;1999.90;999.90;;;;;;;3.87;55.01;101579.38;5059195;27;98234;-70
2021/10/16 00:46:58;;;;;;;1999.90;999.90;;;;;;;3.89;55.06;101580.38;5058455;27;97383;-69
2021/10/16 00:49:28;;;;;;;1999.90;999.90;;;;;;;3.88;55.26;101579.47;5041730;27;100449;-70
2021/10/16 00:51:57;;;;;;;1999.90;999.90;;;;;;;3.92;54.89;101573.56;5060205;27;97548;-69
2021/10/16 00:54:24;;;;;;;1999.90;999.90;;;;;;;3.92;55.32;101572.66;5041450;27;97042;-70
2021/10/16 00:56:53;;;;;;;1999.90;999.90;;;;;;;3.88;55.46;101568.03;5059022;27;97865;-69
2021/10/16 00:59:21;;;;;;;1999.90;999.90;;;;;;;3.85;55.27;101568.75;5057721;27;100000;-70
2021/10/16 01:01:49;;;;;;;1999.90;999.90;;;;;;;3.81;55.63;101573.72;5058047;27;97658;-72
2021/10/16 01:04:17;;;;;;;1999.90;999.90;;;;;;;3.80;55.87;101567.59;5058846;27;97726;-70
2021/10/16 01:06:55;;;;;;;1999.90;999.90;;;;;;;3.81;55.50;101560.56;5039994;27;97684;-70
2021/10/16 01:09:22;;;;;;;1999.90;999.90;;;;;;;3.84;55.81;101563.41;5057006;27;99225;-71
2021/10/16 01:11:53;;;;;;;1999.90;999.90;;;;;;;3.87;55.59;101569.78;5057499;27;97784;-70
2021/10/16 01:14:21;;;;;;;1999.90;999.90;;;;;;;3.88;55.74;101574.19;5058301;27;97625;-70
2021/10/16 01:16:51;;;;;;;1999.90;999.90;;;;;;;3.89;55.45;101575.13;5039351;27;99306;-70
2021/10/16 01:19:22;;;;;;;1999.90;999.90;;;;;;;3.89;55.47;101573.41;5057954;27;97913;-69
2021/10/16 01:21:55;;;;;;;1999.90;999.90;;;;;;;3.88;55.67;101578.56;5042187;27;98108;-69
2021/10/16 01:24:23;;;;;;;1999.90;999.90;;;;;;;3.89;55.65;101581.31;5042694;27;96935;-70
2021/10/16 01:26:51;;;;;;;1999.90;999.90;;;;;;;3.92;55.54;101581.47;5057392;27;97706;-69
2021/10/16 01:29:22;;;;;;;1999.90;999.90;;;;;;;3.93;55.40;101578.00;5039819;27;101033;-70
2021/10/16 01:31:51;;;;;;;1999.90;999.90;;;;;;;3.96;55.60;101579.94;5056540;27;97667;-72
2021/10/16 01:34:19;;;;;;;1999.90;999.90;;;;;;;3.93;55.53;101583.28;5058065;27;97614;-71
2021/10/16 01:36:49;;;;;;;1999.90;999.90;;;;;;;3.92;55.60;101585.81;5056557;27;97841;-71
2021/10/16 01:39:22;;;;;;;1999.90;999.90;;;;;;;3.92;55.31;101576.22;5056504;27;97747;-70
2021/10/16 01:41:51;;;;;;;1999.90;999.90;;;;;;;3.96;55.38;101583.50;5057037;27;99732;-71
2021/10/16 01:44:19;;;;;;;1999.90;999.90;;;;;;;4.01;55.40;101589.00;5040746;27;97602;-71
2021/10/16 01:46:47;;;;;;;1999.90;999.90;;;;;;;4.03;55.31;101577.78;5040920;27;97859;-71
2021/10/16 01:49:20;;;;;;;1999.90;999.90;;;;;;;4.09;55.19;101575.50;5057758;27;97749;-73
2021/10/16 01:51:54;;;;;;;1999.90;999.90;;;;;;;4.07;55.21;101571.88;5040835;27;100778;-70
2021/10/16 01:54:25;;;;;;;1999.90;999.90;;;;;;;4.01;55.40;101581.13;5039401;27;98163;-72
2021/10/16 01:56:55;;;;;;;1999.90;999.90;;;;;;;3.98;55.28;101586.22;5041615;27;97918;-71
2021/10/16 01:59:24;;;;;;;1999.90;999.90;;;;;;;3.96;55.43;101582.56;5057283;27;97615;-71
2021/10/16 02:02:23;;;;;;;1999.90;999.90;;;;;;;3.96;55.36;101583.50;5053061;27;99555;-72
2021/10/16 02:05:11;;;;;;;1999.90;999.90;;;;;;;3.95;55.36;101586.03;5055824;27;97092;-73
2021/10/16 02:07:41;;;;;;;1999.90;999.90;;;;;;;3.96;55.44;101590.47;5055996;27;97506;-69
2021/10/16 02:10:12;;;;;;;1999.90;999.90;;;;;;;3.98;55.52;101584.50;5039626;27;101025;-69
2021/10/16 02:12:42;;;;;;;1999.90;999.90;;;;;;;4.02;55.59;101577.69;5057808;27;97691;-70
2021/10/16 02:15:10;;;;;;;1999.90;999.90;;;;;;;4.03;55.47;101585.66;5039895;27;97626;-71
2021/10/16 02:17:50;;;;;;;1999.90;999.90;;;;;;;4.06;55.12;101587.59;5055710;27;98459;-70
2021/10/16 02:20:18;;;;;;;1999.90;999.90;;;;;;;4.01;55.50;101592.56;5038844;27;99292;-72
2021/10/16 02:22:47;;;;;;;1999.90;999.90;;;;;;;4.01;55.46;101586.38;5056823;27;98918;-69
2021/10/16 02:25:17;;;;;;;1999.90;999.90;;;;;;;3.97;55.90;101594.94;5039544;27;97735;-70
2021/10/16 02:27:45;;;;;;;1999.90;999.90;;;;;;;3.94;55.76;101590.38;5056635;27;97596;-68
2021/10/16 02:30:13;;;;;;;1999.90;999.90;;;;;;;3.93;55.59;101590.28;5039593;27;97764;-67
2021/10/16 02:32:41;;;;;;;1999.90;999.90;;;;;;;3.91;55.79;101590.22;5038478;27;98688;-70
2021/10/16 02:35:10;;;;;;;1999.90;999.90;;;;;;;3.99;55.30;101586.28;5055513;27;97139;-68
2021/10/16 02:37:38;;;;;;;1999.90;999.90;;;;;;;3.79;56.02;101578.91;5055655;27;97769;-70
2021/10/16 02:40:10;;;;;;;1999.90;999.90;;;;;;;3.74;55.63;101588.25;5038625;27;98241;-69
2021/10/16 02:42:41;;;;;;;1999.90;999.90;;;;;;;3.72;56.00;101597.78;5039271;27;97685;-69
2021/10/16 02:45:10;;;;;;;1999.90;999.90;;;;;;;3.73;56.09;101599.59;5057584;27;97576;-70
2021/10/16 02:47:38;;;;;;;1999.90;999.90;;;;;;;3.68;56.31;101602.75;5039915;27;97289;-67
2021/10/16 02:50:06;;;;;;;1999.90;999.90;;;;;;;3.65;55.91;101610.47;5055209;27;97947;-71
2021/10/16 02:52:34;;;;;;;1999.90;999.90;;;;;;;3.62;55.96;101613.81;5039335;27;100853;-70
2021/10/16 02:55:02;;;;;;;1999.90;999.90;;;;;;;3.57;55.92;101617.84;5040493;27;97996;-69
2021/10/16 02:57:45;;;;;;;1999.90;999.90;;;;;;;3.53;55.98;101607.06;5055672;27;97552;-68
2021/10/16 03:00:13;;;;;;;1999.90;999.90;;;;;;;3.53;56.10;101610.56;5039031;27;100576;-68
2021/10/16 03:02:41;;;;;;;1999.90;999.90;;;;;;;3.53;55.78;101605.31;5056728;27;100379;-69
2021/10/16 03:05:11;;;;;;;1999.90;999.90;;;;;;;3.53;56.17;101609.69;5039421;27;97261;-68
2021/10/16 03:07:39;;;;;;;1999.90;999.90;;;;;;;3.51;56.09;101606.97;5056367;27;97855;-71
2021/10/16 03:10:07;;;;;;;1999.90;999.90;;;;;;;3.52;55.79;101613.09;5057047;27;98863;-69
2021/10/16 03:12:35;;;;;;;1999.90;999.90;;;;;;;3.52;56.03;101607.84;5056504;27;100854;-71
2021/10/16 03:15:05;;;;;;;1999.90;999.90;;;;;;;3.49;56.26;101605.97;5037730;27;97672;-69
2021/10/16 03:17:36;;;;;;;1999.90;999.90;;;;;;;3.45;56.21;101611.84;5038414;27;96963;-67
2021/10/16 03:20:07;;;;;;;1999.90;999.90;;;;;;;3.41;55.92;101609.81;5055518;27;97927;-70
2021/10/16 03:22:34;;;;;;;1999.90;999.90;;;;;;;3.39;56.49;101614.06;5056611;27;97560;-67
2021/10/16 03:25:03;;;;;;;1999.90;999.90;;;;;;;3.36;56.62;101619.16;5037937;27;97757;-68
2021/10/16 03:27:30;;;;;;;1999.90;999.90;;;;;;;3.33;56.33;101616.31;5056901;27;97431;-68
2021/10/16 03:29:58;;;;;;;1999.90;999.90;;;;;;;3.31;56.60;101617.97;5059671;27;100379;-70
2021/10/16 03:32:27;;;;;;;1999.90;999.90;;;;;;;3.59;56.02;101616.22;5056993;27;97659;-69
2021/10/16 03:34:55;;;;;;;1999.90;999.90;;;;;;;3.41;57.01;101614.16;5041043;27;97603;-71
2021/10/16 03:37:23;;;;;;;1999.90;999.90;;;;;;;3.38;56.73;101611.34;5041063;27;97412;-70
2021/10/16 03:39:51;;;;;;;1999.90;999.90;;;;;;;3.37;56.90;101618.31;5041457;27;98810;-69
2021/10/16 03:42:19;;;;;;;1999.90;999.90;;;;;;;3.38;56.71;101613.97;5058018;27;97756;-68
2021/10/16 03:44:54;;;;;;;1999.90;999.90;;;;;;;3.39;56.88;101611.44;5059757;27;98592;-68
2021/10/16 03:47:22;;;;;;;1999.90;999.90;;;;;;;3.38;57.00;101619.25;5043097;27;97763;-71
2021/10/16 03:49:51;;;;;;;1999.90;999.90;;;;;;;3.38;56.97;101614.91;5060112;27;99163;-68
2021/10/16 03:52:19;;;;;;;1999.90;999.90;;;;;;;3.38;56.89;101613.97;5041630;27;98925;-70
2021/10/16 03:54:49;;;;;;;1999.90;999.90;;;;;;;3.38;57.13;101608.72;5042442;27;97382;-67
2021/10/16 03:57:17;;;;;;;1999.90;999.90;;;;;;;3.38;56.57;101612.25;5059265;27;98478;-68
2021/10/16 03:59:46;;;;;;;1999.90;999.90;;;;;;;3.38;56.73;101619.25;5040986;27;99721;-68
2021/10/16 04:02:15;;;;;;;1999.90;999.90;;;;;;;3.38;57.09;101619.25;5035740;27;98051;-70
2021/10/16 04:04:44;;;;;;;1999.90;999.90;;;;;;;3.37;56.73;101613.06;5071907;27;97670;-71
2021/10/16 04:07:13;;;;;;;1999.90;999.90;;;;;;;3.37;56.90;101617.44;5057635;27;96947;-71
2021/10/16 04:09:45;;;;;;;1999.90;999.90;;;;;;;3.36;56.86;101615.59;5039077;27;99523;-73
2021/10/16 04:12:13;;;;;;;1999.90;999.90;;;;;;;3.38;56.90;101617.53;5058435;27;97645;-72
2021/10/16 04:14:41;;;;;;;1999.90;999.90;;;;;;;3.42;56.73;101626.50;5042950;27;96861;-69
2021/10/16 04:17:10;;;;;;;1999.90;999.90;;;;;;;3.43;56.51;101612.53;5059091;27;97320;-70
2021/10/16 04:19:38;;;;;;;1999.90;999.90;;;;;;;3.44;56.33;101619.63;5041073;27;100467;-69
2021/10/16 04:22:05;;;;;;;1999.90;999.90;;;;;;;3.43;56.55;101618.72;5042755;27;98379;-69
2021/10/16 04:24:35;;;;;;;1999.90;999.90;;;;;;;3.42;56.57;101616.91;5060628;27;97970;-75
2021/10/16 04:27:03;;;;;;;1999.90;999.90;;;;;;;3.43;56.36;101607.28;5060010;27;97817;-68
2021/10/16 04:29:34;;;;;;;1999.90;999.90;;;;;;;3.43;56.69;101613.44;5042695;27;99542;-73
2021/10/16 04:32:08;;;;;;;1999.90;999.90;;;;;;;3.44;56.85;101617.88;5042652;27;98742;-69
2021/10/16 04:34:36;;;;;;;1999.90;999.90;;;;;;;3.44;56.34;101617.00;5043327;27;97931;-72
2021/10/16 04:37:04;;;;;;;1999.90;999.90;;;;;;;3.44;56.37;101624.91;5059496;27;97774;-72
2021/10/16 04:39:32;;;;;;;1999.90;999.90;;;;;;;3.42;56.65;101623.88;5058040;27;97203;-71
2021/10/16 04:42:02;;;;;;;1999.90;999.90;;;;;;;3.44;56.52;101625.78;5042255;27;99410;-72
2021/10/16 04:44:30;;;;;;;1999.90;999.90;;;;;;;3.43;56.78;101623.97;5041236;27;97706;-68
2021/10/16 04:46:58;;;;;;;1999.90;999.90;;;;;;;3.44;56.79;101627.53;5074656;27;97185;-70
2021/10/16 04:49:26;;;;;;;1999.90;999.90;;;;;;;3.43;57.15;101626.59;5041493;27;99958;-71
2021/10/16 04:51:54;;;;;;;1999.90;999.90;;;;;;;3.45;56.97;101627.63;5042224;27;99302;-73
2021/10/16 04:54:23;;;;;;;1999.90;999.90;;;;;;;3.48;56.47;101630.44;5058133;27;97687;-70
2021/10/16 04:56:51;;;;;;;1999.90;999.90;;;;;;;3.51;56.97;101635.00;5054631;27;97328;-71
2021/10/16 04:59:24;;;;;;;1999.90;999.90;;;;;;;3.53;56.80;101629.00;5041244;27;100444;-72
2021/10/16 05:01:52;;;;;;;1999.90;999.90;;;;;;;3.56;56.55;101630.91;5040041;27;100090;-73
2021/10/16 05:04:20;;;;;;;1999.90;999.90;;;;;;;3.59;56.92;101636.34;5058497;27;97294;-70
2021/10/16 05:06:48;;;;;;;1999.90;999.90;;;;;;;3.60;56.57;101639.13;5040960;27;97388;-70
2021/10/16 05:09:16;;;;;;;1999.90;999.90;;;;;;;3.63;56.72;101643.63;5040877;27;99142;-70
2021/10/16 05:11:44;;;;;;;1999.90;999.90;;;;;;;3.65;56.67;101642.97;5040280;27;100653;-70
2021/10/16 05:14:14;;;;;;;1999.90;999.90;;;;;;;3.68;56.81;101645.78;5040814;27;97805;-70
2021/10/16 05:16:45;;;;;;;1999.90;999.90;;;;;;;3.73;56.62;101652.22;5041271;27;97440;-71
2021/10/16 05:19:14;;;;;;;1999.90;999.90;;;;;;;3.77;56.81;101643.72;5039341;27;99329;-71
2021/10/16 05:21:41;;;;;;;1999.90;999.90;;;;;;;3.77;56.66;101642.84;5040681;27;100919;-68
2021/10/16 05:24:10;;;;;;;1999.90;999.90;;;;;;;3.80;56.68;101643.94;5039975;27;97762;-68
2021/10/16 05:26:40;;;;;;;1999.90;999.90;;;;;;;3.83;56.30;101651.09;5056756;27;97017;-69
2021/10/16 05:29:08;;;;;;;1999.90;999.90;;;;;;;3.87;56.57;101648.75;5040696;27;99231;-70
2021/10/16 05:31:36;;;;;;;1999.90;999.90;;;;;;;3.88;56.31;101650.56;5057439;27;98925;-70
2021/10/16 05:34:05;;;;;;;1999.90;999.90;;;;;;;3.88;56.41;101639.09;5056784;27;97129;-70
2021/10/16 05:36:33;;;;;;;1999.90;999.90;;;;;;;3.87;56.55;101635.59;5038259;27;97611;-72
2021/10/16 05:39:01;;;;;;;1999.90;999.90;;;;;;;3.88;56.37;101647.00;5073533;27;99519;-70
2021/10/16 05:41:29;;;;;;;1999.90;999.90;;;;;;;3.87;56.58;101640.84;5037761;27;101004;-69
2021/10/16 05:43:57;;;;;;;1999.90;999.90;;;;;;;3.88;56.65;101647.91;5057320;27;97581;-70
2021/10/16 05:46:25;;;;;;;1999.90;999.90;;;;;;;3.84;56.55;101648.53;5040087;27;97611;-69
2021/10/16 05:48:53;;;;;;;1999.90;999.90;;;;;;;3.85;56.66;101663.53;5056448;27;99837;-71
2021/10/16 05:51:22;;;;;;;1999.90;999.90;;;;;;;3.87;56.63;101674.16;5057561;27;97532;-70
2021/10/16 05:53:50;;;;;;;1999.90;999.90;;;;;;;3.85;56.99;101668.81;5039978;27;97797;-71
2021/10/16 05:56:19;;;;;;;1999.90;999.90;;;;;;;3.85;56.90;101679.34;5037198;27;97703;-68
2021/10/16 05:58:47;;;;;;;1999.90;999.90;;;;;;;3.83;57.16;101669.50;5056297;27;97982;-68
2021/10/16 06:01:15;;;;;;;1999.90;999.90;;;;;;;3.82;57.01;101673.91;5038344;27;98742;-68
2021/10/16 06:03:50;;;;;;;1999.90;999.90;;;;;;;3.84;56.55;101685.41;5038461;27;97817;-71
2021/10/16 06:06:19;;;;;;;1999.90;999.90;;;;;;;3.84;56.83;101687.16;5057054;27;96694;-69
2021/10/16 06:08:48;;;;;;;1999.90;999.90;;;;;;;3.84;56.87;101693.28;5039351;27;100549;-70
2021/10/16 06:11:16;;;;;;;1999.90;999.90;;;;;;;3.87;56.89;101697.84;5056689;27;98022;-73
2021/10/16 06:13:44;;;;;;;1999.90;999.90;;;;;;;3.90;56.94;101700.66;5039988;27;97873;-73
2021/10/16 06:16:12;;;;;;;1999.90;999.90;;;;;;;3.91;56.49;101698.16;5056923;27;96723;-70
2021/10/16 06:18:45;;;;;;;1999.90;999.90;;;;;;;3.88;56.82;101699.66;5038848;27;98667;-70
2021/10/16 06:21:14;;;;;;;1999.90;999.90;;;;;;;3.89;56.93;101699.78;5038308;27;99894;-70
2021/10/16 06:23:44;;;;;;;1999.90;999.90;;;;;;;3.91;56.85;101703.44;5054401;27;97792;-67
2021/10/16 06:26:18;;;;;;;1999.90;999.90;;;;;;;3.89;56.66;101702.41;5055156;27;96725;-71
2021/10/16 06:28:45;;;;;;;1999.90;999.90;;;;;;;3.91;56.65;101706.06;5037948;27;101559;-72
2021/10/16 06:31:13;;;;;;;1999.90;999.90;;;;;;;3.93;56.67;101701.75;5038040;27;98975;-70
2021/10/16 06:33:41;;;;;;;1999.90;999.90;;;;;;;3.95;56.64;101708.03;5037978;27;97350;-72
2021/10/16 06:36:10;;;;;;;1999.90;999.90;;;;;;;3.96;56.54;101715.16;5053063;27;98270;-71
2021/10/16 06:38:45;;;;;;;1999.90;999.90;;;;;;;4.00;56.84;101714.53;5071785;27;99265;-71
2021/10/16 06:41:13;;;;;;;1999.90;999.90;;;;;;;4.02;56.57;101707.59;5053782;27;97374;-70
2021/10/16 06:43:50;;;;;;;1999.90;999.90;;;;;;;4.03;56.63;101712.06;5055259;27;97525;-70
2021/10/16 06:46:38;;;;;;;1999.90;999.90;;;;;;;4.04;56.72;101719.16;5028678;27;97934;-70
2021/10/16 06:49:23;;;;;;;1999.90;999.90;;;;;;;4.05;56.89;101714.78;5052971;27;100883;-69
2021/10/16 06:51:52;;;;;;;1999.90;999.90;;;;;;;4.07;56.45;101713.16;5037518;27;101010;-70
2021/10/16 06:54:20;;;;;;;1999.90;999.90;;;;;;;4.08;56.52;101718.53;5057229;27;97369;-69
2021/10/16 06:56:47;;;;;;;1999.90;999.90;;;;;;;4.10;56.65;101727.44;5056348;27;97856;-72
2021/10/16 06:59:18;;;;;;;1999.90;999.90;;;;;;;4.16;56.62;101719.91;5035604;27;99417;-71
2021/10/16 07:01:48;;;;;;;1999.90;999.90;;;;;;;4.16;56.39;101714.66;5037977;27;100684;-69
2021/10/16 07:04:20;;;;;;;1999.90;999.90;;;;;;;4.19;56.45;101728.00;5038142;27;97585;-69
2021/10/16 07:06:54;;;;;;;1999.90;999.90;;;;;;;4.22;56.53;101730.81;5038068;27;97467;-71
2021/10/16 07:09:29;;;;;;;1999.90;999.90;;;;;;;4.24;56.53;101733.56;5038277;27;100020;-72
2021/10/16 07:11:57;;;;;;;1999.90;999.90;;;;;;;4.26;56.46;101733.66;5057821;27;98797;-71
2021/10/16 07:14:26;;;;;;;1999.90;999.90;;;;;;;4.23;56.38;101732.66;5057365;27;97420;-71
2021/10/16 07:16:54;;;;;;;1999.90;999.90;;;;;;;4.27;56.49;101740.72;5040372;27;97093;-70
2021/10/16 07:19:22;;;;;;;1999.90;999.90;;;;;;;4.31;56.59;101740.13;5058209;27;97904;-71
2021/10/16 07:21:50;;;;;;;1999.90;999.90;;;;;;;4.34;56.58;101745.56;5060132;27;97897;-70
2021/10/16 07:24:18;;;;;;;1999.90;999.90;;;;;;;4.36;56.33;101743.94;5061014;27;97887;-69
2021/10/16 07:26:49;;;;;;;1999.90;999.90;;;;;;;4.35;56.56;101742.13;5058232;27;97693;-72
2021/10/16 07:29:17;;;;;;;1999.90;999.90;;;;;;;4.38;56.19;101747.56;5041447;27;97852;-69
2021/10/16 07:31:46;;;;;;;1999.90;999.90;;;;;;;4.38;56.44;101742.31;5060067;27;99301;-70
2021/10/16 07:34:14;;;;;;;1999.90;999.90;;;;;;;4.42;56.20;101749.59;5058005;27;97272;-70
2021/10/16 07:36:42;;;;;;;1999.90;999.90;;;;;;;4.47;56.23;101742.84;5057619;27;97266;-70
2021/10/16 07:39:10;;;;;;;1999.90;999.90;;;;;;;4.51;56.15;101748.44;5057328;27;99787;-71
2021/10/16 07:41:38;;;;;;;1999.90;999.90;;;;;;;4.56;56.21;101752.25;5056482;27;101680;-70
2021/10/16 07:44:08;;;;;;;1999.90;999.90;;;;;;;4.59;56.21;101752.41;5056751;27;97895;-70
2021/10/16 07:46:36;;;;;;;1999.90;999.90;;;;;;;4.64;56.00;101752.72;5040005;27;97815;-70
2021/10/16 07:49:05;;;;;;;1999.90;999.90;;;;;;;4.69;56.13;101761.78;5057619;27;97880;-70
2021/10/16 07:51:35;;;;;;;1999.90;999.90;;;;;;;4.72;56.14;101761.97;5039446;27;98435;-71
2021/10/16 07:54:04;;;;;;;1999.90;999.90;;;;;;;4.75;55.94;101756.91;5057939;27;97060;-69
2021/10/16 07:56:32;;;;;;;1999.90;999.90;;;;;;;4.80;56.10;101764.28;5057461;27;97414;-72
2021/10/16 07:59:00;;;;;;;1999.90;999.90;;;;;;;4.84;55.85;101768.91;5041790;27;100051;-68
2021/10/16 08:01:33;;;;;;;1999.90;999.90;;;;;;;4.87;55.87;101776.06;5059698;27;100482;-69
2021/10/16 08:04:01;;;;;;;1999.90;999.90;;;;;;;4.92;55.85;101769.34;5057793;27;97443;-71
2021/10/16 08:06:34;;;;;;;1999.90;999.90;;;;;;;5.00;55.76;101778.63;5057292;27;98654;-71
2021/10/16 08:09:02;;;;;;;1999.90;999.90;;;;;;;5.07;55.52;101772.94;5054241;27;99536;-68
2021/10/16 08:11:48;;;;;;;1999.90;999.90;;;;;;;5.10;55.86;101778.41;5052340;27;101049;-71
2021/10/16 08:14:16;;;;;;;1999.90;999.90;;;;;;;5.11;55.93;101781.13;5055417;27;98525;-71
2021/10/16 08:16:44;;;;;;;1999.90;999.90;;;;;;;5.10;55.94;101776.66;5056852;27;98131;-74
2021/10/16 08:19:12;;;;;;;1999.90;999.90;;;;;;;5.13;55.58;101778.56;5039206;27;99597;-71
2021/10/16 08:21:42;;;;;;;1999.90;999.90;;;;;;;5.13;55.85;101774.22;5073360;27;101327;-72
2021/10/16 08:24:10;;;;;;;1999.90;999.90;;;;;;;5.16;55.63;101777.03;5039345;27;97660;-73
2021/10/16 08:26:38;;;;;;;1999.90;999.90;;;;;;;5.14;56.13;101775.09;5054222;27;97695;-71
2021/10/16 08:29:06;;;;;;;1999.90;999.90;;;;;;;5.14;56.05;101777.75;5057927;27;99308;-71
2021/10/16 08:31:34;;;;;;;1999.90;999.90;;;;;;;5.16;55.82;101776.09;5040758;27;98910;-71
2021/10/16 08:34:01;;;;;;;1999.90;999.90;;;;;;;5.21;56.00;101778.19;5057087;27;98253;-71
2021/10/16 08:36:29;;;;;;;1999.90;999.90;;;;;;;5.26;55.87;101780.19;5037300;27;98789;-72
2021/10/16 08:38:58;;;;;;;1999.90;999.90;;;;;;;5.28;55.85;101775.94;5055597;27;98670;-69
2021/10/16 08:41:26;;;;;;;1999.90;999.90;;;;;;;5.32;55.84;101783.22;5047335;27;99349;-72
2021/10/16 08:43:55;;;;;;;1999.90;999.90;;;;;;;5.38;55.72;101780.91;5051409;27;98024;-71
2021/10/16 08:46:24;;;;;;;1999.90;999.90;;;;;;;5.42;55.72;101782.91;5048985;27;97227;-71
2021/10/16 08:48:52;;;;;;;1999.90;999.90;;;;;;;5.46;55.43;101785.81;5052207;27;98791;-71
2021/10/16 08:51:20;;;;;;;1999.90;999.90;;;;;;;5.54;55.24;101784.50;5053406;27;98763;-72
2021/10/16 08:53:48;;;;;;;1999.90;999.90;;;;;;;5.60;55.14;101782.22;5052039;27;96822;-73
2021/10/16 08:56:20;;;;;;;1999.90;999.90;;;;;;;5.63;55.35;101782.41;5053106;27;97179;-72
2021/10/16 08:58:48;;;;;;;1999.90;999.90;;;;;;;5.68;55.05;101778.31;5051613;27;100265;-72
2021/10/16 09:01:16;;;;;;;1999.90;999.90;;;;;;;5.71;55.37;101780.19;5053421;27;98510;-70
2021/10/16 09:03:47;;;;;;;1999.90;999.90;;;;;;;5.72;55.18;101784.66;5038382;27;97943;-69
2021/10/16 09:06:16;;;;;;;1999.90;999.90;;;;;;;5.72;55.10;101780.28;5056136;27;98212;-70
2021/10/16 09:08:47;;;;;;;1999.90;999.90;;;;;;;5.76;55.04;101779.63;5056045;27;97942;-67
2021/10/16 09:11:25;;;;;;;1999.90;999.90;;;;;;;5.77;55.54;101778.81;5055623;27;99148;-69
2021/10/16 09:13:56;;;;;;;1999.90;999.90;;;;;;;5.85;54.94;101784.53;5055595;27;96832;-70
2021/10/16 09:16:29;;;;;;;1999.90;999.90;;;;;;;5.88;55.12;101777.69;5038642;27;98627;-68
2021/10/16 09:19:04;;;;;;;1999.90;999.90;;;;;;;5.95;54.88;101773.66;5034093;27;99656;-69
2021/10/16 09:21:33;;;;;;;1999.90;999.90;;;;;;;6.01;54.93;101780.16;5054151;27;98962;-67
2021/10/16 09:24:07;;;;;;;1999.90;999.90;;;;;;;6.05;54.75;101776.88;5051276;27;96937;-69
2021/10/16 09:26:39;;;;;;;1999.90;999.90;;;;;;;6.09;55.17;101773.56;5033815;27;98346;-70
2021/10/16 09:29:08;;;;;;;1999.90;999.90;;;;;;;6.09;54.46;101778.88;5053453;27;97783;-70
2021/10/16 09:31:38;;;;;;;1999.90;999.90;;;;;;;6.11;54.79;101778.94;5055066;27;100404;-70
2021/10/16 09:34:06;;;;;;;1999.90;999.90;;;;;;;6.15;54.38;101779.22;5055483;27;97555;-70
2021/10/16 09:36:35;;;;;;;1999.90;999.90;;;;;;;6.21;54.63;101776.00;5049287;27;97237;-69
2021/10/16 09:39:05;;;;;;;1999.90;999.90;;;;;;;6.28;54.56;101779.91;5051662;27;98761;-72
2021/10/16 09:41:35;;;;;;;1999.90;999.90;;;;;;;6.30;54.59;101772.97;5049371;27;98524;-69
2021/10/16 09:44:06;;;;;;;1999.90;999.90;;;;;;;6.37;54.49;101773.38;5051826;27;97835;-69
2021/10/16 09:46:34;;;;;;;1999.90;999.90;;;;;;;6.42;54.21;101774.53;5047483;27;98009;-67
2021/10/16 09:49:08;;;;;;;1999.90;999.90;;;;;;;6.47;54.11;101772.16;5033209;27;98863;-70
2021/10/16 09:51:51;;;;;;;1999.90;999.90;;;;;;;6.54;54.53;101774.28;5031595;27;98901;-72
2021/10/16 09:54:19;;;;;;;1999.90;999.90;;;;;;;6.61;54.13;101771.13;5049882;27;98844;-66
2021/10/16 09:56:48;;;;;;;1999.90;999.90;;;;;;;6.66;53.89;101775.84;5038186;27;97333;-70
2021/10/16 09:59:20;;;;;;;1999.90;999.90;;;;;;;6.72;53.74;101775.25;5046856;27;99596;-69
2021/10/16 10:01:48;;;;;;;1999.90;999.90;;;;;;;6.73;53.76;101772.69;5051629;27;99597;-72
2021/10/16 10:04:18;;;;;;;1999.90;999.90;;;;;;;6.77;53.71;101772.00;5046924;27;97876;-70
2021/10/16 10:06:47;;;;;;;1999.90;999.90;;;;;;;6.82;53.61;101775.81;5045932;27;98572;-72
2021/10/16 10:09:17;;;;;;;1999.90;999.90;;;;;;;6.87;53.67;101781.34;5049088;27;97641;-67
2021/10/16 10:11:47;;;;;;;1999.90;999.90;;;;;;;6.91;53.56;101775.34;5067744;27;98496;-69
2021/10/16 10:14:19;;;;;;;1999.90;999.90;;;;;;;6.93;53.80;101771.06;5049999;27;98871;-72
2021/10/16 10:16:54;;;;;;;1999.90;999.90;;;;;;;6.99;53.44;101779.31;5051297;27;97339;-71
2021/10/16 10:19:22;;;;;;;1999.90;999.90;;;;;;;7.04;53.20;101778.72;5053076;27;97975;-68
2021/10/16 10:21:51;;;;;;;1999.90;999.90;;;;;;;7.09;53.38;101779.84;5049509;27;97768;-68
2021/10/16 10:24:19;;;;;;;1999.90;999.90;;;;;;;7.11;53.50;101772.00;5052451;27;97844;-72
2021/10/16 10:26:49;;;;;;;1999.90;999.90;;;;;;;7.12;52.98;101768.53;5052688;27;99050;-73
2021/10/16 10:29:20;;;;;;;1999.90;999.90;;;;;;;7.12;52.96;101769.44;5051798;27;98776;-70
2021/10/16 10:31:57;;;;;;;1999.90;999.90;;;;;;;7.15;53.11;101763.38;5055997;27;99007;-71
2021/10/16 10:34:38;;;;;;;1999.90;999.90;;;;;;;7.21;52.92;101771.63;5056130;27;98100;-70
2021/10/16 10:37:10;;;;;;;1999.90;999.90;;;;;;;7.27;52.94;101766.66;5039685;27;96938;-70
2021/10/16 10:39:55;;;;;;;1999.90;999.90;;;;;;;7.34;52.62;101765.22;5057496;27;101622;-71
2021/10/16 10:42:50;;;;;;;1999.90;999.90;;;;;;;7.37;52.01;101768.91;5039841;27;99320;-72
2021/10/16 10:45:38;;;;;;;1999.90;999.90;;;;;;;7.41;52.10;101767.38;5042308;27;97321;-69
2021/10/16 10:48:24;;;;;;;1999.90;999.90;;;;;;;7.42;52.25;101769.19;5060049;27;97315;-70
2021/10/16 10:50:58;;;;;;;1999.90;999.90;;;;;;;7.43;52.42;101765.72;5057114;27;99236;-71
2021/10/16 10:53:47;;;;;;;1999.90;999.90;;;;;;;7.37;52.27;101757.41;5057196;27;98030;-72
2021/10/16 10:56:21;;;;;;;1999.90;999.90;;;;;;;7.39;52.53;101763.69;5052111;27;97752;-71
2021/10/16 10:59:16;;;;;;;1999.90;999.90;;;;;;;7.37;51.29;101760.06;5055585;27;97663;-70
2021/10/16 11:01:53;;;;;;;1999.90;999.90;;;;;;;7.41;51.06;101757.69;5056603;27;97786;-71
2021/10/16 11:04:46;;;;;;;1999.90;999.90;;;;;;;7.44;51.62;101749.88;5057251;27;99480;-72
2021/10/16 11:07:17;;;;;;;1999.90;999.90;;;;;;;7.48;52.00;101743.91;5057044;27;97381;-73